Time;durP1;ratioP1;P1;durP2;ratioP2;P2;SDS_P1;SDS_P2;PMS_P1;PMS_P2;Temp;Humidity;BMP_temperature;BMP_pressure;BME280_temperature;BME280_humidity;BME280_pressure;Samples;Min_cycle;Max_cycle;Signal;HPM_P1;HPM_P2
2024/02/10 00:01:54;;;;;;;25.00;13.70;;;11.00;89.50;;;;;;5024206;28;20597;-73
2024/02/10 00:04:20;;;;;;;19.27;11.47;;;10.90;89.20;;;;;;5027827;28;20654;-69
2024/02/10 00:06:46;;;;;;;21.23;11.93;;;10.90;89.30;;;;;;5028174;28;20428;-72
2024/02/10 00:09:14;;;;;;;22.70;12.87;;;11.00;89.30;;;;;;5027629;28;20201;-70
2024/02/10 00:11:41;;;;;;;21.47;12.93;;;10.90;89.20;;;;;;5023454;28;20240;-71
2024/02/10 00:14:08;;;;;;;25.70;13.67;;;10.90;89.30;;;;;;5022004;28;20432;-71
2024/02/10 00:16:33;;;;;;;20.70;11.93;;;11.00;89.30;;;;;;5027439;28;20610;-69
2024/02/10 00:19:06;;;;;;;21.90;12.73;;;10.90;89.30;;;;;;5028515;28;20837;-72
2024/02/10 00:21:34;;;;;;;23.07;12.77;;;11.00;89.30;;;;;;5024312;28;20217;-70
2024/02/10 00:24:00;;;;;;;19.03;11.73;;;11.00;89.30;;;;;;5023058;28;20431;-70
2024/02/10 00:26:25;;;;;;;21.80;11.90;;;11.00;89.20;;;;;;5027904;28;20481;-69
2024/02/10 00:28:53;;;;;;;24.37;12.57;;;11.00;89.00;;;;;;5021765;28;20272;-69
2024/02/10 00:31:23;;;;;;;23.57;13.50;;;11.00;89.00;;;;;;5020026;28;20578;-70
2024/02/10 00:33:50;;;;;;;28.60;15.10;;;11.00;89.00;;;;;;5022147;28;20940;-72
2024/02/10 00:36:20;;;;;;;28.23;13.70;;;10.90;89.00;;;;;;5027533;28;20463;-71
2024/02/10 00:38:46;;;;;;;24.00;13.63;;;10.90;89.20;;;;;;5026739;28;20446;-71
2024/02/10 00:41:13;;;;;;;26.13;14.60;;;11.00;89.20;;;;;;5020118;28;20471;-71
2024/02/10 00:43:43;;;;;;;30.47;16.10;;;10.90;89.20;;;;;;5023357;28;20725;-71
2024/02/10 00:46:15;;;;;;;23.57;13.20;;;10.90;89.30;;;;;;5028090;28;20847;-71
2024/02/10 00:48:47;;;;;;;23.37;13.67;;;11.00;89.50;;;;;;5028568;28;20443;-71
2024/02/10 00:51:13;;;;;;;26.70;14.70;;;11.10;89.00;;;;;;5021556;28;20456;-69
2024/02/10 00:53:40;;;;;;;30.53;16.07;;;11.00;89.00;;;;;;5024656;28;20924;-69
2024/02/10 00:56:09;;;;;;;33.73;16.10;;;10.90;88.90;;;;;;5026265;28;20902;-71
2024/02/10 00:58:37;;;;;;;24.60;13.13;;;10.90;89.20;;;;;;5027654;28;20419;-71
2024/02/10 01:01:03;;;;;;;20.60;11.47;;;10.90;89.00;;;;;;5022553;28;20506;-73
2024/02/10 01:03:29;;;;;;;21.87;12.00;;;10.90;89.20;;;;;;5028894;28;20460;-69
2024/02/10 01:05:55;;;;;;;31.53;13.27;;;10.80;88.70;;;;;;5028646;28;20610;-71
2024/02/10 01:08:21;;;;;;;21.77;11.83;;;10.70;88.90;;;;;;5027405;28;20193;-70
2024/02/10 01:10:51;;;;;;;21.07;12.67;;;10.60;89.00;;;;;;5026988;28;21176;-68
2024/02/10 01:13:17;;;;;;;17.33;10.60;;;10.50;89.20;;;;;;5027619;28;20427;-70
2024/02/10 01:15:42;;;;;;;22.30;11.73;;;10.50;89.30;;;;;;5030979;28;20455;-70
2024/02/10 01:18:09;;;;;;;25.70;12.60;;;10.40;89.60;;;;;;5032169;28;20428;-70
2024/02/10 01:20:35;;;;;;;24.73;12.33;;;10.40;89.70;;;;;;5028110;28;20980;-72
2024/02/10 01:23:02;;;;;;;25.97;15.40;;;10.30;89.70;;;;;;5027166;28;20420;-71
2024/02/10 01:25:30;;;;;;;24.70;14.17;;;10.30;90.00;;;;;;5027476;28;20670;-71
2024/02/10 01:27:55;;;;;;;25.77;13.30;;;10.30;90.00;;;;;;5031313;28;20502;-72
2024/02/10 01:30:21;;;;;;;27.07;14.47;;;10.30;90.00;;;;;;5028011;28;21177;-69
2024/02/10 01:32:47;;;;;;;27.33;14.13;;;10.30;90.20;;;;;;5032595;28;20181;-69
2024/02/10 01:35:12;;;;;;;28.73;15.07;;;10.20;90.20;;;;;;5029856;28;20274;-70
2024/02/10 01:37:41;;;;;;;26.13;13.33;;;10.10;90.20;;;;;;5036245;28;20579;-70
2024/02/10 01:40:10;;;;;;;17.77;9.80;;;10.10;90.30;;;;;;5032474;28;20193;-71
2024/02/10 01:42:39;;;;;;;21.37;11.10;;;10.10;90.40;;;;;;5023764;28;20436;-70
2024/02/10 01:45:11;;;;;;;11.80;7.50;;;10.10;90.60;;;;;;5028446;28;20488;-70
2024/02/10 01:47:37;;;;;;;10.77;6.53;;;10.10;90.60;;;;;;5025856;28;20459;-69
2024/02/10 01:50:07;;;;;;;14.90;7.77;;;10.10;90.70;;;;;;5029788;28;21015;-67
2024/02/10 01:52:35;;;;;;;9.03;6.40;;;10.20;90.70;;;;;;5022316;28;20492;-69
2024/02/10 01:55:01;;;;;;;11.93;6.70;;;10.10;90.80;;;;;;5031832;28;20423;-71
2024/02/10 01:57:27;;;;;;;10.77;7.30;;;10.20;90.70;;;;;;5026467;28;21029;-71
2024/02/10 01:59:53;;;;;;;11.47;7.10;;;10.20;90.70;;;;;;5031328;28;20435;-74
2024/02/10 02:02:19;;;;;;;9.90;6.60;;;10.20;90.70;;;;;;5020336;28;20556;-71
2024/02/10 02:04:45;;;;;;;11.03;6.53;;;10.30;90.70;;;;;;5025941;28;20496;-72
2024/02/10 02:07:11;;;;;;;9.70;6.50;;;10.30;90.70;;;;;;5028309;28;20949;-71
2024/02/10 02:09:37;;;;;;;10.30;6.40;;;10.40;90.70;;;;;;5026970;28;20197;-70
2024/02/10 02:12:07;;;;;;;15.47;6.27;;;10.30;90.60;;;;;;5025352;28;20208;-71
2024/02/10 02:14:37;;;;;;;10.90;5.90;;;10.30;90.60;;;;;;5030433;28;20433;-69
2024/02/10 02:17:04;;;;;;;9.20;5.97;;;10.40;90.60;;;;;;5031696;28;20470;-70
2024/02/10 02:19:40;;;;;;;7.73;5.13;;;10.50;90.60;;;;;;5031691;28;20427;-71
2024/02/10 02:22:08;;;;;;;9.27;5.33;;;10.60;90.50;;;;;;5024472;28;20795;-71
2024/02/10 02:24:34;;;;;;;10.00;5.67;;;10.60;90.40;;;;;;5031037;28;20481;-69
2024/02/10 02:27:00;;;;;;;15.33;8.53;;;10.70;90.20;;;;;;5030453;28;20459;-68
2024/02/10 02:29:25;;;;;;;11.50;5.67;;;10.70;90.10;;;;;;5030030;28;20189;-70
2024/02/10 02:31:59;;;;;;;9.20;5.50;;;10.70;90.00;;;;;;5024885;28;20220;-70
2024/02/10 02:34:28;;;;;;;11.63;5.53;;;10.70;89.90;;;;;;5029392;28;20193;-70
2024/02/10 02:36:54;;;;;;;12.80;6.10;;;10.70;89.70;;;;;;5028418;28;20471;-72
2024/02/10 02:39:20;;;;;;;15.50;8.80;;;10.70;89.60;;;;;;5028278;28;20428;-70
2024/02/10 02:41:46;;;;;;;13.30;7.80;;;10.60;89.30;;;;;;5026692;28;20580;-68
2024/02/10 02:44:14;;;;;;;14.20;7.40;;;10.50;89.30;;;;;;5029542;28;20475;-69
2024/02/10 02:46:49;;;;;;;10.90;6.30;;;10.50;89.30;;;;;;5029417;28;20478;-69
2024/02/10 02:49:15;;;;;;;13.80;6.90;;;10.60;89.60;;;;;;5029012;28;20916;-70
2024/02/10 02:51:41;;;;;;;13.50;7.70;;;10.60;89.30;;;;;;5027081;28;20487;-70
2024/02/10 02:54:08;;;;;;;14.47;7.90;;;10.60;89.30;;;;;;5027854;28;20865;-72
2024/02/10 02:56:34;;;;;;;18.97;9.57;;;10.60;89.00;;;;;;5033137;28;21130;-70
2024/02/10 02:59:00;;;;;;;16.60;9.47;;;10.60;88.90;;;;;;5029269;28;20424;-70
2024/02/10 03:01:25;;;;;;;14.13;7.50;;;10.50;88.90;;;;;;5025785;28;20213;-70
2024/02/10 03:03:51;;;;;;;15.83;9.30;;;10.40;88.90;;;;;;5029967;28;20215;-69
2024/02/10 03:06:18;;;;;;;15.40;8.80;;;10.50;89.00;;;;;;5026650;28;20201;-70
2024/02/10 03:08:45;;;;;;;17.87;10.10;;;10.50;88.90;;;;;;5024849;28;20205;-72
2024/02/10 03:11:18;;;;;;;12.03;7.50;;;10.40;89.00;;;;;;5028129;28;20678;-71
2024/02/10 03:13:47;;;;;;;11.97;8.10;;;10.40;89.20;;;;;;5031389;28;20708;-71
2024/02/10 03:16:15;;;;;;;16.40;10.00;;;10.40;89.30;;;;;;5033241;28;20563;-70
2024/02/10 03:18:47;;;;;;;16.00;9.50;;;10.40;89.30;;;;;;5028726;28;20451;-68
2024/02/10 03:21:21;;;;;;;13.50;8.60;;;10.30;89.30;;;;;;5028677;28;20471;-71
2024/02/10 03:23:47;;;;;;;15.77;9.17;;;10.30;89.20;;;;;;5031816;28;20440;-69
2024/02/10 03:26:12;;;;;;;16.63;9.50;;;10.30;89.30;;;;;;5033060;28;21322;-68
2024/02/10 03:28:38;;;;;;;16.70;9.40;;;10.30;89.20;;;;;;5031782;28;20190;-70
2024/02/10 03:31:05;;;;;;;18.83;10.57;;;10.20;89.20;;;;;;5025321;28;20678;-72
2024/02/10 03:33:32;;;;;;;13.90;7.93;;;10.10;89.20;;;;;;5031785;28;20298;-70
2024/02/10 03:35:59;;;;;;;15.63;8.80;;;10.10;89.20;;;;;;5029488;28;20470;-70
2024/02/10 03:38:24;;;;;;;16.50;9.00;;;10.10;89.30;;;;;;5035108;28;20424;-69
2024/02/10 03:40:50;;;;;;;13.13;8.27;;;10.10;89.50;;;;;;5027024;28;20474;-71
2024/02/10 03:43:17;;;;;;;15.80;9.17;;;10.20;89.50;;;;;;5031401;28;20193;-71
2024/02/10 03:45:43;;;;;;;14.70;9.27;;;10.20;89.30;;;;;;5029953;28;20928;-71
2024/02/10 03:48:09;;;;;;;20.67;10.70;;;10.20;89.30;;;;;;5032472;28;20432;-71
2024/02/10 03:50:35;;;;;;;22.53;11.90;;;10.10;89.20;;;;;;5029737;28;20448;-71
2024/02/10 03:53:00;;;;;;;25.17;13.80;;;10.10;89.20;;;;;;5034069;28;20185;-71
2024/02/10 03:55:29;;;;;;;22.10;13.13;;;10.10;89.20;;;;;;5032801;28;20698;-70
2024/02/10 03:57:56;;;;;;;24.73;10.70;;;10.00;89.00;;;;;;5031946;28;20173;-70
2024/02/10 04:00:24;;;;;;;25.17;11.83;;;10.00;89.20;;;;;;5031389;28;20464;-71
2024/02/10 04:02:50;;;;;;;22.23;11.30;;;9.90;89.20;;;;;;5037847;28;20411;-70
2024/02/10 04:05:16;;;;;;;22.07;11.00;;;9.80;89.20;;;;;;5034272;28;20471;-70
2024/02/10 04:07:49;;;;;;;18.67;10.37;;;9.80;89.30;;;;;;5030833;28;20181;-70
2024/02/10 04:10:16;;;;;;;21.10;11.50;;;9.80;89.50;;;;;;5027026;28;20811;-71
2024/02/10 04:12:42;;;;;;;20.27;10.97;;;9.70;89.50;;;;;;5017406;28;20536;-71
2024/02/10 04:15:11;;;;;;;32.80;14.83;;;9.80;89.60;;;;;;5028509;28;20432;-72
2024/02/10 04:17:38;;;;;;;21.30;11.60;;;9.70;89.70;;;;;;5026775;28;21048;-70
2024/02/10 04:20:07;;;;;;;20.80;12.20;;;9.70;89.70;;;;;;5028931;28;20586;-70
2024/02/10 04:22:39;;;;;;;26.37;14.50;;;9.70;89.90;;;;;;5019497;28;20425;-70
2024/02/10 04:25:09;;;;;;;24.97;12.67;;;9.70;89.90;;;;;;5033541;28;20464;-71
2024/02/10 04:27:36;;;;;;;21.70;12.70;;;9.70;89.70;;;;;;5037362;28;20420;-71
2024/02/10 04:30:06;;;;;;;25.00;12.50;;;9.70;89.70;;;;;;5036932;28;20431;-72
2024/02/10 04:32:42;;;;;;;26.60;13.70;;;9.70;89.60;;;;;;5024844;28;20519;-72
2024/02/10 04:35:11;;;;;;;30.40;14.63;;;9.60;89.60;;;;;;5035979;28;20523;-69
2024/02/10 04:37:37;;;;;;;23.30;13.43;;;9.60;89.90;;;;;;5034053;28;20435;-70
2024/02/10 04:40:03;;;;;;;25.27;12.63;;;9.60;89.90;;;;;;5033789;28;21339;-72
2024/02/10 04:42:29;;;;;;;24.93;12.47;;;9.50;89.90;;;;;;5022826;28;20202;-71
2024/02/10 04:44:58;;;;;;;34.30;16.13;;;9.70;90.10;;;;;;5031132;28;20431;-71
2024/02/10 04:47:25;;;;;;;36.60;17.77;;;9.60;90.00;;;;;;5032638;28;20223;-71
2024/02/10 04:49:51;;;;;;;30.23;16.73;;;9.50;90.00;;;;;;5031764;28;20423;-70
2024/02/10 04:52:18;;;;;;;29.03;14.40;;;9.40;90.00;;;;;;5023472;28;20447;-72
2024/02/10 04:54:44;;;;;;;28.17;13.97;;;9.40;90.10;;;;;;5030091;28;20455;-70
2024/02/10 04:57:10;;;;;;;33.83;16.60;;;9.40;90.20;;;;;;5031356;28;20601;-71
2024/02/10 04:59:35;;;;;;;25.57;13.40;;;9.50;90.30;;;;;;5031500;28;20565;-71
2024/02/10 05:02:02;;;;;;;30.47;15.53;;;9.50;90.30;;;;;;5023848;28;20291;-72
2024/02/10 05:04:27;;;;;;;33.53;14.20;;;9.50;90.30;;;;;;5031937;28;20185;-71
2024/02/10 05:06:53;;;;;;;36.67;17.20;;;9.60;90.20;;;;;;5027377;28;20502;-71
2024/02/10 05:09:19;;;;;;;29.67;14.97;;;9.50;90.10;;;;;;5029164;28;20184;-71
2024/02/10 05:11:44;;;;;;;34.27;15.87;;;9.50;90.10;;;;;;5023874;28;20697;-70
2024/02/10 05:14:13;;;;;;;38.40;16.90;;;9.50;90.20;;;;;;5021498;28;20188;-70
2024/02/10 05:16:41;;;;;;;28.30;14.70;;;9.50;90.20;;;;;;5029080;28;20213;-70
2024/02/10 05:19:07;;;;;;;31.97;15.60;;;9.40;90.20;;;;;;5029400;28;20428;-71
2024/02/10 05:21:37;;;;;;;33.03;15.63;;;9.40;90.30;;;;;;5025645;28;20474;-71
2024/02/10 05:24:10;;;;;;;37.57;18.53;;;9.50;90.40;;;;;;5025019;28;20193;-70
2024/02/10 05:26:38;;;;;;;39.60;18.10;;;9.50;90.40;;;;;;5031314;28;20427;-70
2024/02/10 05:29:07;;;;;;;35.17;14.73;;;9.40;90.40;;;;;;5024503;28;20424;-72
2024/02/10 05:31:36;;;;;;;34.00;16.20;;;9.40;90.50;;;;;;5022598;28;20464;-71
2024/02/10 05:34:05;;;;;;;34.23;18.73;;;9.40;90.50;;;;;;5027005;28;20447;-72
2024/02/10 05:36:37;;;;;;;43.00;19.30;;;9.30;90.40;;;;;;5032622;28;20478;-72
2024/02/10 05:39:04;;;;;;;39.60;18.40;;;9.30;90.50;;;;;;5031498;28;20416;-72
2024/02/10 05:41:30;;;;;;;34.10;16.90;;;9.10;90.50;;;;;;5023643;28;20931;-70
2024/02/10 05:43:55;;;;;;;39.67;18.37;;;9.30;90.70;;;;;;5029512;28;20499;-71
2024/02/10 05:46:21;;;;;;;29.40;15.40;;;9.20;90.70;;;;;;5029155;28;20189;-71
2024/02/10 05:48:47;;;;;;;34.13;16.47;;;9.30;90.80;;;;;;5028445;28;20192;-70
2024/02/10 05:51:12;;;;;;;33.20;15.13;;;9.40;90.90;;;;;;5020069;28;20315;-70
2024/02/10 05:53:38;;;;;;;38.40;17.67;;;9.30;90.90;;;;;;5025626;28;20212;-71
2024/02/10 05:56:05;;;;;;;35.17;16.17;;;9.20;90.80;;;;;;5029345;28;20227;-71
2024/02/10 05:58:31;;;;;;;32.87;15.80;;;9.20;90.90;;;;;;5031383;28;20169;-70
2024/02/10 06:00:58;;;;;;;30.37;16.07;;;9.30;91.00;;;;;;5026039;28;20456;-70
2024/02/10 06:03:26;;;;;;;30.53;15.90;;;9.30;90.90;;;;;;5029650;28;20181;-71
2024/02/10 06:05:52;;;;;;;32.67;17.83;;;9.40;90.90;;;;;;5032724;28;20435;-72
2024/02/10 06:08:18;;;;;;;30.93;16.97;;;9.50;90.90;;;;;;5028618;28;20424;-71
2024/02/10 06:10:43;;;;;;;25.70;14.93;;;9.40;90.70;;;;;;5029805;28;20614;-70
2024/02/10 06:13:09;;;;;;;36.07;16.87;;;9.40;90.70;;;;;;5030386;28;20189;-70
2024/02/10 06:15:34;;;;;;;34.90;14.50;;;9.50;90.70;;;;;;5033008;28;20212;-72
2024/02/10 06:18:04;;;;;;;28.47;14.27;;;9.50;90.60;;;;;;5031907;28;20185;-71
2024/02/10 06:20:30;;;;;;;31.30;15.47;;;9.50;90.50;;;;;;5028194;28;20201;-71
2024/02/10 06:22:57;;;;;;;38.67;18.20;;;9.50;90.40;;;;;;5028981;28;20440;-71
2024/02/10 06:25:24;;;;;;;31.80;15.47;;;9.40;90.30;;;;;;5032792;28;20494;-71
2024/02/10 06:27:52;;;;;;;37.30;16.43;;;9.40;90.30;;;;;;5032021;28;20412;-71
2024/02/10 06:30:18;;;;;;;32.57;15.80;;;9.50;90.40;;;;;;5022073;28;20443;-70
2024/02/10 06:32:44;;;;;;;28.50;14.97;;;9.50;90.30;;;;;;5025882;28;20424;-71
2024/02/10 06:35:11;;;;;;;30.50;16.50;;;9.50;90.30;;;;;;5029234;28;20419;-72
2024/02/10 06:37:37;;;;;;;32.37;15.50;;;9.50;90.30;;;;;;5032542;28;20813;-72
2024/02/10 06:40:08;;;;;;;32.43;16.40;;;9.50;90.30;;;;;;5031568;28;20748;-71
2024/02/10 06:42:35;;;;;;;31.47;14.77;;;9.50;90.20;;;;;;5025662;28;20527;-72
2024/02/10 06:45:20;;;;;;;27.80;15.90;;;9.50;90.20;;;;;;5030927;28;20424;-72
2024/02/10 06:47:46;;;;;;;35.53;17.03;;;9.50;90.20;;;;;;5026983;28;20524;-71
2024/02/10 06:50:14;;;;;;;35.43;17.60;;;9.60;90.10;;;;;;5030781;28;20534;-71
2024/02/10 06:52:43;;;;;;;30.30;15.90;;;9.50;90.00;;;;;;5021487;28;20433;-71
2024/02/10 06:55:12;;;;;;;26.67;13.37;;;9.50;90.10;;;;;;5028357;28;20439;-71
2024/02/10 06:57:42;;;;;;;35.30;17.13;;;9.50;90.00;;;;;;5031497;28;21042;-70
2024/02/10 07:00:16;;;;;;;34.70;16.17;;;9.50;90.00;;;;;;5030270;28;20412;-71
2024/02/10 07:02:43;;;;;;;35.23;17.43;;;9.50;90.00;;;;;;5017912;28;21001;-70
2024/02/10 07:05:17;;;;;;;37.10;19.23;;;9.40;90.00;;;;;;5027845;28;20412;-70
2024/02/10 07:07:46;;;;;;;36.50;17.63;;;9.40;89.90;;;;;;5029931;28;20478;-72
2024/02/10 07:10:16;;;;;;;34.53;17.10;;;9.30;89.90;;;;;;5029130;28;20448;-72
2024/02/10 07:12:46;;;;;;;35.60;17.37;;;9.30;90.00;;;;;;5018813;28;20424;-71
2024/02/10 07:15:18;;;;;;;39.10;19.27;;;9.50;90.10;;;;;;5029953;28;20427;-72
2024/02/10 07:17:46;;;;;;;35.60;17.37;;;9.50;90.10;;;;;;5032057;28;20431;-72
2024/02/10 07:20:20;;;;;;;39.20;18.60;;;9.60;90.10;;;;;;5030232;28;20419;-71
2024/02/10 07:22:49;;;;;;;45.00;20.87;;;9.70;90.10;;;;;;5027008;28;20420;-72
2024/02/10 07:25:25;;;;;;;42.03;20.50;;;9.60;90.00;;;;;;5031026;28;20451;-72
2024/02/10 07:27:51;;;;;;;39.73;17.93;;;9.70;90.00;;;;;;5032567;28;20925;-72
2024/02/10 07:30:17;;;;;;;39.47;19.37;;;9.70;90.00;;;;;;5031556;28;20451;-71
2024/02/10 07:32:47;;;;;;;36.07;17.97;;;9.80;90.00;;;;;;5029438;28;20184;-73
2024/02/10 07:35:16;;;;;;;37.67;16.67;;;9.90;90.00;;;;;;5038547;28;21139;-73
2024/02/10 07:37:45;;;;;;;39.90;19.50;;;9.90;89.70;;;;;;5033571;28;20498;-71
2024/02/10 07:40:11;;;;;;;43.97;20.57;;;9.90;89.70;;;;;;5028585;28;20424;-72
2024/02/10 07:42:37;;;;;;;34.23;17.23;;;9.90;89.60;;;;;;5028522;28;20793;-70
2024/02/10 07:45:04;;;;;;;39.43;19.57;;;9.90;89.60;;;;;;5031225;28;20472;-72
2024/02/10 07:47:30;;;;;;;37.07;18.47;;;9.80;89.50;;;;;;5028674;28;21121;-72
2024/02/10 07:49:58;;;;;;;34.33;17.20;;;9.70;89.50;;;;;;5025115;28;20423;-72
2024/02/10 07:52:28;;;;;;;35.03;16.03;;;9.70;89.50;;;;;;5026122;28;20185;-72
2024/02/10 07:54:56;;;;;;;34.17;18.20;;;9.80;89.60;;;;;;5030787;28;20407;-72
2024/02/10 07:57:22;;;;;;;40.77;20.23;;;9.90;89.50;;;;;;5032794;28;20479;-71
2024/02/10 07:59:50;;;;;;;33.37;17.67;;;10.00;89.30;;;;;;5034088;28;20478;-73
2024/02/10 08:02:21;;;;;;;36.77;18.47;;;9.80;89.20;;;;;;5031551;28;20472;-71
2024/02/10 08:04:51;;;;;;;43.43;19.00;;;9.90;89.30;;;;;;5035884;28;20432;-72
2024/02/10 08:07:21;;;;;;;35.07;17.97;;;9.90;89.20;;;;;;5041268;28;20480;-71
2024/02/10 08:09:51;;;;;;;42.00;18.00;;;10.00;89.20;;;;;;5036213;28;20440;-71
2024/02/10 08:12:26;;;;;;;39.57;19.70;;;10.10;89.00;;;;;;5027560;28;20461;-72
2024/02/10 08:14:56;;;;;;;38.37;18.83;;;10.10;89.00;;;;;;5027686;28;20404;-73
2024/02/10 08:17:26;;;;;;;37.60;19.03;;;10.10;89.00;;;;;;5034204;28;20575;-71
2024/02/10 08:19:56;;;;;;;39.90;18.93;;;10.20;89.20;;;;;;5031763;28;20439;-70
2024/02/10 08:22:23;;;;;;;42.30;21.13;;;10.30;89.20;;;;;;5016940;28;20439;-71
2024/02/10 08:24:51;;;;;;;40.30;18.27;;;10.30;88.90;;;;;;5027824;28;20424;-70
2024/02/10 08:27:18;;;;;;;44.33;20.07;;;10.20;87.70;;;;;;5028181;28;20524;-72
2024/02/10 08:29:45;;;;;;;44.27;21.30;;;10.10;87.80;;;;;;5032891;28;20768;-70
2024/02/10 08:32:13;;;;;;;36.33;18.60;;;9.90;88.10;;;;;;5017085;28;20875;-71
2024/02/10 08:34:42;;;;;;;45.07;22.10;;;9.80;88.40;;;;;;5026750;28;20525;-71
2024/02/10 08:37:17;;;;;;;46.77;23.97;;;9.90;88.90;;;;;;5030332;28;21034;-72
2024/02/10 08:39:44;;;;;;;47.97;22.30;;;9.80;89.00;;;;;;5025971;28;20451;-71
2024/02/10 08:42:11;;;;;;;52.53;23.13;;;9.80;89.00;;;;;;5018770;28;20547;-71
2024/02/10 08:44:37;;;;;;;44.07;22.10;;;9.90;89.30;;;;;;5030394;28;20420;-71
2024/02/10 08:47:05;;;;;;;50.17;22.63;;;9.80;89.20;;;;;;5030473;28;20539;-70
2024/02/10 08:49:36;;;;;;;40.77;19.70;;;9.80;89.30;;;;;;5030613;28;20460;-71
2024/02/10 08:52:03;;;;;;;48.80;23.50;;;9.90;89.50;;;;;;5024132;28;20876;-71
2024/02/10 08:54:30;;;;;;;42.77;21.73;;;10.00;89.30;;;;;;5030826;28;20424;-71
2024/02/10 08:57:02;;;;;;;55.87;23.13;;;10.00;89.00;;;;;;5028781;28;20474;-71
2024/02/10 08:59:31;;;;;;;48.70;21.10;;;10.10;89.30;;;;;;5027686;28;20431;-73
2024/02/10 09:02:00;;;;;;;51.27;23.30;;;10.30;89.30;;;;;;5022874;28;21023;-71
2024/02/10 09:04:27;;;;;;;46.33;20.83;;;10.20;88.90;;;;;;5016548;28;20448;-73
2024/02/10 09:06:52;;;;;;;39.07;19.03;;;10.30;88.70;;;;;;5025610;28;20435;-73
2024/02/10 09:09:18;;;;;;;47.57;21.60;;;10.20;88.60;;;;;;5031987;28;21051;-71
2024/02/10 09:11:46;;;;;;;45.67;20.80;;;10.30;88.70;;;;;;5024046;28;20303;-73
2024/02/10 09:14:12;;;;;;;49.87;22.80;;;10.40;88.60;;;;;;5022796;28;20355;-71
2024/02/10 09:16:37;;;;;;;46.00;19.80;;;10.30;88.40;;;;;;5027869;28;20567;-70
2024/02/10 09:19:03;;;;;;;41.07;18.23;;;10.40;88.40;;;;;;5026582;28;20915;-71
2024/02/10 09:21:28;;;;;;;38.17;19.20;;;10.50;88.00;;;;;;5023153;28;20205;-74
2024/02/10 09:23:54;;;;;;;37.63;18.67;;;10.30;87.40;;;;;;5019423;28;20278;-72
2024/02/10 09:26:20;;;;;;;43.93;20.10;;;10.00;88.10;;;;;;5028196;28;20180;-72
2024/02/10 09:28:47;;;;;;;46.40;20.17;;;9.80;89.00;;;;;;5030077;28;20188;-71
2024/02/10 09:31:13;;;;;;;48.90;19.43;;;9.80;89.50;;;;;;5032680;28;20229;-72
2024/02/10 09:33:40;;;;;;;43.13;18.17;;;9.80;89.60;;;;;;5036324;28;20448;-71
2024/02/10 09:36:08;;;;;;;40.97;20.17;;;9.70;89.60;;;;;;5027877;28;20968;-70
2024/02/10 09:38:34;;;;;;;50.57;22.70;;;9.70;89.90;;;;;;5033789;28;20510;-73
2024/02/10 09:41:00;;;;;;;54.60;22.93;;;9.70;90.10;;;;;;5025423;28;20528;-70
2024/02/10 09:43:31;;;;;;;57.83;23.87;;;9.70;90.10;;;;;;5025050;28;20447;-71
2024/02/10 09:46:06;;;;;;;46.73;21.80;;;9.70;90.10;;;;;;5035499;28;20603;-72
2024/02/10 09:48:55;;;;;;;49.70;22.07;;;9.80;90.20;;;;;;5035429;28;20438;-71
2024/02/10 09:51:20;;;;;;;54.60;23.93;;;9.90;90.20;;;;;;5025573;28;20464;-73
2024/02/10 09:53:47;;;;;;;50.60;24.00;;;10.00;90.10;;;;;;5031126;28;20411;-72
2024/02/10 09:56:14;;;;;;;51.10;22.60;;;10.20;90.20;;;;;;5034661;28;20213;-72
2024/02/10 09:58:41;;;;;;;55.70;23.80;;;10.30;90.10;;;;;;5034419;28;20427;-72
2024/02/10 10:01:09;;;;;;;40.53;20.33;;;10.30;89.70;;;;;;5027807;28;20464;-72
2024/02/10 10:03:39;;;;;;;41.13;20.50;;;10.30;89.50;;;;;;5029656;28;20427;-72
2024/02/10 10:06:09;;;;;;;37.60;20.10;;;10.30;89.20;;;;;;5030471;28;20830;-72
2024/02/10 10:08:38;;;;;;;40.17;19.47;;;10.30;89.00;;;;;;5031608;28;20448;-72
2024/02/10 10:11:09;;;;;;;44.37;21.07;;;10.40;88.70;;;;;;5027948;28;20500;-72
2024/02/10 10:13:37;;;;;;;37.40;19.20;;;10.40;88.40;;;;;;5028384;28;20969;-71
2024/02/10 10:16:07;;;;;;;40.87;19.30;;;10.50;88.40;;;;;;5037386;28;20466;-72
2024/02/10 10:18:35;;;;;;;34.97;18.73;;;10.70;88.40;;;;;;5034484;28;20520;-72
2024/02/10 10:21:04;;;;;;;38.63;18.73;;;10.80;88.30;;;;;;5027537;28;20926;-73
2024/02/10 10:23:33;;;;;;;37.87;18.27;;;10.90;88.00;;;;;;5029374;28;20996;-71
2024/02/10 10:25:59;;;;;;;41.23;19.20;;;11.00;87.80;;;;;;5030649;28;20431;-71
2024/02/10 10:28:25;;;;;;;40.63;18.73;;;11.10;87.60;;;;;;5029870;28;20435;-72
2024/02/10 10:30:51;;;;;;;44.03;20.30;;;11.10;87.30;;;;;;5028510;28;20236;-71
2024/02/10 10:33:21;;;;;;;33.63;17.13;;;11.20;86.90;;;;;;5020579;28;20198;-70
2024/02/10 10:35:48;;;;;;;34.40;17.47;;;11.00;86.20;;;;;;5029396;28;20228;-72
2024/02/10 10:38:14;;;;;;;40.70;19.30;;;11.00;86.30;;;;;;5029905;28;20427;-71
2024/02/10 10:40:42;;;;;;;52.50;23.70;;;11.10;86.20;;;;;;5021941;28;20463;-72
2024/02/10 10:43:11;;;;;;;50.33;25.67;;;11.00;86.20;;;;;;5020703;28;20933;-72
2024/02/10 10:45:38;;;;;;;39.93;20.97;;;10.90;86.30;;;;;;5030366;28;20420;-72
2024/02/10 10:48:07;;;;;;;46.60;21.70;;;10.90;86.80;;;;;;5030210;28;20526;-71
2024/02/10 10:50:34;;;;;;;43.07;22.20;;;11.10;86.90;;;;;;5020678;28;20487;-71
2024/02/10 10:53:06;;;;;;;44.70;23.03;;;11.10;86.90;;;;;;5023757;28;20424;-72
2024/02/10 10:55:35;;;;;;;48.27;22.83;;;11.20;86.90;;;;;;5032244;28;20440;-72
2024/02/10 10:58:04;;;;;;;52.67;24.27;;;11.20;86.80;;;;;;5029378;28;20429;-70
2024/02/10 11:00:33;;;;;;;50.47;23.43;;;11.20;86.80;;;;;;5027923;28;20907;-70
2024/02/10 11:03:02;;;;;;;47.70;22.77;;;11.10;86.60;;;;;;5028919;28;20473;-72
2024/02/10 11:05:32;;;;;;;43.37;22.23;;;11.20;86.60;;;;;;5034159;28;20448;-73
2024/02/10 11:08:01;;;;;;;45.73;22.03;;;11.20;86.50;;;;;;5028882;28;20436;-70
2024/02/10 11:10:48;;;;;;;48.93;22.97;;;11.20;86.50;;;;;;5026282;28;20473;-70
2024/02/10 11:13:21;;;;;;;45.10;22.07;;;11.00;86.50;;;;;;5022141;28;20803;-70
2024/02/10 11:16:13;;;;;;;54.37;24.33;;;10.90;86.60;;;;;;5029119;28;20471;-70
2024/02/10 11:18:43;;;;;;;56.23;26.93;;;10.80;87.00;;;;;;5029227;28;20435;-73
2024/02/10 11:21:19;;;;;;;48.00;23.70;;;10.70;87.10;;;;;;5024907;28;20546;-72
2024/02/10 11:24:05;;;;;;;50.33;23.00;;;10.70;87.40;;;;;;5021437;28;20436;-70
2024/02/10 11:26:39;;;;;;;51.70;24.03;;;10.70;87.40;;;;;;5025614;28;20430;-72
2024/02/10 11:29:06;;;;;;;49.73;22.03;;;10.80;87.60;;;;;;5029020;28;20460;-70
2024/02/10 11:31:39;;;;;;;45.60;21.57;;;10.80;87.40;;;;;;5024142;28;20460;-71
2024/02/10 11:34:11;;;;;;;54.50;24.43;;;10.80;87.60;;;;;;5025452;28;20824;-72
2024/02/10 11:36:37;;;;;;;57.13;26.73;;;10.80;87.60;;;;;;5030120;28;20486;-70
2024/02/10 11:39:08;;;;;;;51.70;23.53;;;10.70;87.60;;;;;;5027989;28;20431;-72
2024/02/10 11:41:37;;;;;;;55.27;23.70;;;10.50;87.70;;;;;;5025638;28;21074;-72
2024/02/10 11:44:05;;;;;;;47.37;23.47;;;10.60;88.00;;;;;;5028846;28;20427;-70
2024/02/10 11:46:31;;;;;;;50.20;23.10;;;10.70;88.30;;;;;;5029271;28;20419;-70
2024/02/10 11:48:59;;;;;;;52.80;23.40;;;10.80;88.00;;;;;;5028249;28;20426;-72
2024/02/10 11:51:28;;;;;;;52.67;24.80;;;10.80;87.80;;;;;;5026597;28;20286;-72
2024/02/10 11:53:58;;;;;;;52.00;23.40;;;10.70;87.70;;;;;;5023717;28;20462;-72
2024/02/10 11:56:25;;;;;;;59.67;23.50;;;10.60;87.70;;;;;;5031680;28;20494;-72
2024/02/10 11:58:51;;;;;;;48.93;22.60;;;10.80;88.00;;;;;;5028318;28;20502;-71
2024/02/10 12:01:17;;;;;;;55.67;25.00;;;11.00;87.80;;;;;;5020552;28;20475;-72
2024/02/10 12:03:43;;;;;;;96.97;47.83;;;11.10;87.60;;;;;;5023794;28;20428;-71
2024/02/10 12:06:12;;;;;;;88.80;42.57;;;11.20;87.10;;;;;;5028808;28;20489;-72
2024/02/10 12:08:42;;;;;;;49.67;25.07;;;11.30;86.80;;;;;;5028160;28;20420;-73
2024/02/10 12:11:09;;;;;;;42.07;20.20;;;11.20;86.60;;;;;;5021366;28;20470;-72
2024/02/10 12:13:35;;;;;;;41.20;19.77;;;11.20;86.50;;;;;;5019553;28;20440;-72
2024/02/10 12:16:01;;;;;;;45.73;23.27;;;11.30;86.20;;;;;;5030452;28;20912;-72
2024/02/10 12:18:33;;;;;;;47.67;21.27;;;11.30;85.90;;;;;;5029188;28;20520;-72
2024/02/10 12:20:58;;;;;;;36.57;20.17;;;11.30;86.00;;;;;;5023840;28;20456;-70
2024/02/10 12:23:29;;;;;;;47.27;21.60;;;11.40;86.00;;;;;;5021213;28;20503;-74
2024/02/10 12:25:56;;;;;;;46.63;22.20;;;11.50;85.90;;;;;;5028709;28;20240;-72
2024/02/10 12:28:22;;;;;;;38.17;19.47;;;11.50;85.70;;;;;;5028132;28;20444;-71
2024/02/10 12:30:49;;;;;;;38.10;17.73;;;11.60;85.50;;;;;;5026736;28;20538;-72
2024/02/10 12:33:16;;;;;;;32.77;17.23;;;11.50;85.20;;;;;;5023260;28;20440;-72
2024/02/10 12:35:45;;;;;;;38.80;20.20;;;11.50;84.70;;;;;;5028882;28;20424;-73
2024/02/10 12:38:12;;;;;;;41.40;20.43;;;11.50;84.60;;;;;;5028320;28;20424;-72